Time;durP1;ratioP1;P1;durP2;ratioP2;P2;SDS_P1;SDS_P2;PMS_P1;PMS_P2;Temp;Humidity;BMP_temperature;BMP_pressure;BME280_temperature;BME280_humidity;BME280_pressure;Samples;Min_cycle;Max_cycle;Signal;HPM_P1;HPM_P2
2022/08/28 00:08:34;;;;;;;1999.90;999.90;;;19.90;99.90;;;;;;6735155;88;20310;-77
2022/08/28 00:18:35;;;;;;;1999.90;999.90;;;19.80;99.90;;;;;;6734254;88;20604;-77
2022/08/28 00:28:35;;;;;;;1999.90;999.90;;;20.00;99.90;;;;;;6739329;88;20180;-78
2022/08/28 00:38:36;;;;;;;1999.90;999.90;;;19.90;99.90;;;;;;6734356;88;20740;-77
2022/08/28 00:48:36;;;;;;;1999.90;999.90;;;19.90;99.90;;;;;;6738164;88;20214;-77
2022/08/28 00:58:39;;;;;;;1999.90;999.90;;;19.70;99.90;;;;;;6737017;88;20230;-77
2022/08/28 01:08:44;;;;;;;1999.90;999.90;;;19.70;99.90;;;;;;6736408;88;20181;-77
2022/08/28 01:18:47;;;;;;;1999.90;999.90;;;19.70;99.90;;;;;;6732819;88;20322;-77
2022/08/28 01:28:47;;;;;;;1999.90;999.90;;;19.60;99.90;;;;;;6734294;88;20367;-77
2022/08/28 01:38:54;;;;;;;1999.90;999.90;;;19.60;99.90;;;;;;6736351;88;20229;-78
2022/08/28 01:48:55;;;;;;;1999.90;999.90;;;19.70;99.90;;;;;;6734854;88;20636;-77
2022/08/28 01:58:56;;;;;;;1999.90;999.90;;;19.70;99.90;;;;;;6735999;88;20672;-77
2022/08/28 02:08:57;;;;;;;1999.90;999.90;;;19.60;99.90;;;;;;6734970;88;20189;-77
2022/08/28 02:18:57;;;;;;;1999.90;999.90;;;19.60;99.90;;;;;;6727736;88;20311;-77
2022/08/28 02:28:58;;;;;;;1999.90;999.90;;;19.60;99.90;;;;;;6731302;88;20174;-77
2022/08/28 02:38:59;;;;;;;1999.90;999.90;;;19.60;99.90;;;;;;6736617;88;20264;-77
2022/08/28 02:48:59;;;;;;;1999.90;999.90;;;19.50;99.90;;;;;;6732961;88;20648;-77
2022/08/28 02:59:00;;;;;;;1999.90;999.90;;;19.40;99.90;;;;;;6730562;88;20208;-78
2022/08/28 03:09:00;;;;;;;1999.90;999.90;;;19.40;99.90;;;;;;6732689;88;20193;-77
2022/08/28 03:19:01;;;;;;;1999.90;999.90;;;19.30;99.90;;;;;;6730586;88;20239;-77
2022/08/28 03:29:02;;;;;;;1999.90;999.90;;;19.30;99.90;;;;;;6734349;87;20289;-77
2022/08/28 03:39:05;;;;;;;1999.90;999.90;;;19.30;99.90;;;;;;6733407;88;20567;-76
2022/08/28 03:49:05;;;;;;;1999.90;999.90;;;19.20;99.90;;;;;;6735475;88;20193;-77
2022/08/28 03:59:07;;;;;;;1999.90;999.90;;;19.10;99.90;;;;;;6736488;88;20196;-77
2022/08/28 04:09:07;;;;;;;1999.90;999.90;;;19.00;99.90;;;;;;6729373;88;20243;-77
2022/08/28 04:19:08;;;;;;;1999.90;999.90;;;19.00;99.90;;;;;;6734974;88;20214;-77
2022/08/28 04:29:09;;;;;;;1999.90;999.90;;;18.80;99.90;;;;;;6740321;76;20699;-75
2022/08/28 04:39:09;;;;;;;1999.90;999.90;;;18.80;99.90;;;;;;6755297;88;20197;-78
2022/08/28 04:49:10;;;;;;;1999.90;999.90;;;18.70;99.90;;;;;;6757527;88;20258;-77
2022/08/28 04:59:12;;;;;;;1999.90;999.90;;;18.60;99.90;;;;;;6748878;88;20268;-77
2022/08/28 05:09:16;;;;;;;1999.90;999.90;;;18.50;99.90;;;;;;6749485;88;20193;-77
2022/08/28 05:19:18;;;;;;;1999.90;999.90;;;18.40;99.90;;;;;;6752277;88;20276;-77
2022/08/28 05:29:19;;;;;;;1999.90;999.90;;;18.50;99.90;;;;;;6750489;88;20192;-78
2022/08/28 05:39:19;;;;;;;1999.90;999.90;;;18.40;99.90;;;;;;6749345;88;20641;-77
2022/08/28 05:49:20;;;;;;;1999.90;999.90;;;18.60;99.90;;;;;;6747624;88;20254;-78
2022/08/28 05:59:20;;;;;;;1999.90;999.90;;;18.60;99.90;;;;;;6743070;88;20597;-78
2022/08/28 06:09:26;;;;;;;1999.90;999.90;;;18.70;99.90;;;;;;6745066;88;20188;-77
2022/08/28 06:19:28;;;;;;;1999.90;999.90;;;18.90;99.90;;;;;;6748422;88;20290;-75
2022/08/28 06:29:29;;;;;;;1999.90;999.90;;;19.00;99.90;;;;;;6750419;88;20306;-76
2022/08/28 06:39:29;;;;;;;1999.90;999.90;;;19.00;99.90;;;;;;6747810;88;20313;-76
2022/08/28 06:49:30;;;;;;;1999.90;999.90;;;19.20;99.90;;;;;;6747870;88;20647;-76
2022/08/28 06:59:31;;;;;;;1999.90;999.90;;;19.30;99.90;;;;;;6751543;87;20210;-76
2022/08/28 07:09:31;;;;;;;1999.90;999.90;;;19.90;99.90;;;;;;6758067;88;20241;-77
2022/08/28 07:19:32;;;;;;;1999.90;999.90;;;20.10;99.90;;;;;;6758445;87;20596;-77
2022/08/28 07:29:33;;;;;;;1999.90;999.90;;;20.20;99.90;;;;;;6748897;88;20636;-77
2022/08/28 07:39:34;;;;;;;1999.90;999.90;;;21.00;99.90;;;;;;6744934;88;20243;-76
2022/08/28 07:49:34;;;;;;;1999.90;999.90;;;21.70;99.90;;;;;;6756322;87;20216;-77
2022/08/28 07:59:37;;;;;;;1999.90;999.90;;;22.00;99.90;;;;;;6754551;88;20172;-76
2022/08/28 08:09:42;;;;;;;1999.90;999.90;;;22.20;99.90;;;;;;6749083;88;20232;-77
2022/08/28 08:19:42;;;;;;;1999.90;999.90;;;22.30;99.90;;;;;;6755933;87;21315;-78
2022/08/28 08:29:43;;;;;;;1999.90;999.90;;;23.40;99.90;;;;;;6755451;88;20188;-78
2022/08/28 08:39:44;;;;;;;1999.90;999.90;;;23.80;99.90;;;;;;6750072;88;20222;-77
2022/08/28 08:49:56;;;;;;;1999.90;999.90;;;24.20;99.70;;;;;;6744591;88;20250;-77
2022/08/28 08:59:56;;;;;;;1999.90;999.90;;;23.90;99.00;;;;;;6746478;87;20222;-77
2022/08/28 09:09:57;;;;;;;1999.90;999.90;;;25.00;98.00;;;;;;6748805;88;21169;-77
2022/08/28 09:19:58;;;;;;;1999.90;999.90;;;25.50;96.70;;;;;;6753278;88;20207;-77
2022/08/28 09:30:05;;;;;;;1999.90;999.90;;;25.60;96.40;;;;;;6757525;88;20204;-77
2022/08/28 09:40:20;;;;;;;1999.90;999.90;;;25.60;95.80;;;;;;6733217;88;20254;-76
2022/08/28 09:50:27;;;;;;;1999.90;999.90;;;26.90;94.30;;;;;;6747252;88;20183;-77
2022/08/28 10:00:32;;;;;;;1999.90;999.90;;;26.10;94.00;;;;;;6749750;88;20349;-77
2022/08/28 10:10:40;;;;;;;1999.90;999.90;;;26.90;93.60;;;;;;6748301;88;20180;-77
2022/08/28 10:20:59;;;;;;;1999.90;999.90;;;26.70;93.10;;;;;;6756389;77;20599;-79
2022/08/28 10:31:36;;;;;;;1999.90;999.90;;;27.80;91.10;;;;;;6749838;88;20181;-79
2022/08/28 10:41:48;;;;;;;1999.90;999.90;;;28.20;89.70;;;;;;6750149;87;20654;-79
2022/08/28 10:51:58;;;;;;;1999.90;999.90;;;29.00;87.50;;;;;;6744376;88;20724;-79
2022/08/28 11:02:00;;;;;;;1999.90;999.90;;;29.10;86.70;;;;;;6736774;88;20196;-78
2022/08/28 11:12:09;;;;;;;1999.90;999.90;;;27.90;85.40;;;;;;6744481;88;20194;-78
2022/08/28 11:22:17;;;;;;;1999.90;999.90;;;28.60;83.50;;;;;;6738757;88;20635;-79
2022/08/28 11:32:49;;;;;;;1999.90;999.90;;;28.70;83.50;;;;;;6747222;88;20291;-78
2022/08/28 11:42:49;;;;;;;;;;;29.40;83.30;;;;;;6736862;88;20324;-78
2022/08/28 11:53:22;;;;;;;1999.90;999.90;;;29.30;81.90;;;;;;6744327;88;20103;-79
2022/08/28 12:03:40;;;;;;;1999.90;999.90;;;30.20;79.90;;;;;;6746153;88;20265;-79
2022/08/28 12:13:48;;;;;;;1999.90;999.90;;;29.70;79.10;;;;;;6744252;87;20208;-78
2022/08/28 12:24:03;;;;;;;1999.90;999.90;;;30.70;77.30;;;;;;6743696;88;20196;-78
2022/08/28 12:34:10;;;;;;;1999.90;999.90;;;30.40;73.70;;;;;;6754796;88;20172;-79
2022/08/28 12:44:13;;;;;;;1999.90;999.90;;;32.40;71.90;;;;;;6747822;88;20249;-79
2022/08/28 12:54:16;;;;;;;1999.90;999.90;;;30.20;72.90;;;;;;6749385;87;20548;-79
2022/08/28 13:04:52;;;;;;;1999.90;999.90;;;30.80;72.80;;;;;;6747572;87;20338;-77
2022/08/28 13:14:52;;;;;;;1999.90;999.90;;;31.10;71.50;;;;;;6740963;88;20647;-79
2022/08/28 13:24:59;;;;;;;1999.90;999.90;;;30.80;70.50;;;;;;6749665;88;20243;-77
2022/08/28 13:35:15;;;;;;;1999.90;999.90;;;30.50;71.50;;;;;;6742254;88;20188;-78
2022/08/28 13:45:16;;;;;;;1999.90;999.90;;;30.70;71.00;;;;;;6748952;88;20212;-78
2022/08/28 13:55:16;;;;;;;1999.90;999.90;;;31.50;69.90;;;;;;6759081;88;20285;-78
2022/08/28 14:05:18;;;;;;;1999.90;999.90;;;31.20;70.50;;;;;;6744011;88;20196;-78
2022/08/28 14:15:18;;;;;;;1999.90;999.90;;;30.70;68.60;;;;;;6739170;88;20177;-79
2022/08/28 14:25:19;;;;;;;1999.90;999.90;;;30.80;69.20;;;;;;6739639;88;20675;-77
2022/08/28 14:35:19;;;;;;;1999.90;999.90;;;30.80;68.40;;;;;;6736485;88;20255;-78
2022/08/28 14:45:20;;;;;;;1999.90;999.90;;;29.70;70.20;;;;;;6742658;88;21051;-78
2022/08/28 14:55:21;;;;;;;1999.90;999.90;;;30.70;68.60;;;;;;6740289;88;20240;-77
2022/08/28 15:05:21;;;;;;;1999.90;999.90;;;30.40;68.20;;;;;;6734302;87;20226;-78
2022/08/28 15:15:22;;;;;;;1999.90;999.90;;;30.20;68.50;;;;;;6740221;88;20184;-78
2022/08/28 15:25:22;;;;;;;1999.90;999.90;;;30.20;67.80;;;;;;6745023;88;20319;-79
2022/08/28 15:35:23;;;;;;;1999.90;999.90;;;29.80;68.90;;;;;;6747298;88;20676;-80
2022/08/28 15:45:25;;;;;;;1999.90;999.90;;;29.80;69.10;;;;;;6743262;88;20210;-77
2022/08/28 15:55:26;;;;;;;1999.90;999.90;;;29.30;69.10;;;;;;6742231;88;20211;-80
2022/08/28 16:05:31;;;;;;;1999.90;999.90;;;28.60;68.70;;;;;;6748347;88;20193;-79
2022/08/28 16:15:32;;;;;;;1999.90;999.90;;;28.40;68.90;;;;;;6763292;88;20206;-78
2022/08/28 16:26:14;;;;;;;1999.90;999.90;;;28.30;69.40;;;;;;6746379;77;20197;-78
2022/08/28 16:36:16;;;;;;;1999.90;999.90;;;27.60;70.40;;;;;;6730981;88;20915;-78
2022/08/28 16:46:21;;;;;;;1999.90;999.90;;;27.30;71.00;;;;;;6722906;88;20206;-78
2022/08/28 16:56:25;;;;;;;1999.90;999.90;;;26.80;71.50;;;;;;6730421;88;20251;-78
2022/08/28 17:06:29;;;;;;;1999.90;999.90;;;26.50;72.20;;;;;;6733050;88;20255;-78
2022/08/28 17:16:30;;;;;;;1999.90;999.90;;;26.20;72.70;;;;;;6724804;88;20193;-77
2022/08/28 17:26:30;;;;;;;1999.90;999.90;;;25.60;73.60;;;;;;6716502;88;20202;-76
2022/08/28 17:36:32;;;;;;;1999.90;999.90;;;25.10;75.10;;;;;;6723603;88;20239;-77
2022/08/28 17:46:34;;;;;;;1999.90;999.90;;;24.80;75.20;;;;;;6726254;88;20634;-81
2022/08/28 17:56:34;;;;;;;1999.90;999.90;;;24.50;76.10;;;;;;6723715;88;20174;-79
2022/08/28 18:06:35;;;;;;;1999.90;999.90;;;24.30;76.50;;;;;;6720352;88;20210;-79
2022/08/28 18:16:37;;;;;;;1999.90;999.90;;;23.80;76.90;;;;;;6717716;88;20203;-78
2022/08/28 18:26:38;;;;;;;1999.90;999.90;;;23.70;77.50;;;;;;6724565;88;20247;-78
2022/08/28 18:36:41;;;;;;;1999.90;999.90;;;23.30;78.10;;;;;;6712985;88;20252;-77
2022/08/28 18:46:42;;;;;;;1999.90;999.90;;;23.00;78.80;;;;;;6713007;88;20306;-78
2022/08/28 18:56:44;;;;;;;1999.90;999.90;;;22.80;79.70;;;;;;6712332;88;20351;-77
2022/08/28 19:06:45;;;;;;;1999.90;999.90;;;22.50;80.50;;;;;;6715732;88;20208;-77
2022/08/28 19:16:45;;;;;;;1999.90;999.90;;;22.30;81.20;;;;;;6714794;88;20553;-79
2022/08/28 19:26:49;;;;;;;1999.90;999.90;;;22.00;81.30;;;;;;6723624;88;20214;-78
2022/08/28 19:36:50;;;;;;;;;;;21.80;82.80;;;;;;6731135;88;20263;-78
2022/08/28 19:46:51;;;;;;;1999.90;999.90;;;21.60;83.70;;;;;;6725268;88;20056;-77
2022/08/28 19:56:51;;;;;;;1999.90;999.90;;;21.40;84.20;;;;;;6717076;88;20346;-76
2022/08/28 20:06:52;;;;;;;1999.90;999.90;;;21.30;84.80;;;;;;6713729;88;20666;-76
2022/08/28 20:16:53;;;;;;;1999.90;999.90;;;21.10;85.50;;;;;;6712289;88;20195;-77
2022/08/28 20:26:54;;;;;;;1999.90;999.90;;;20.90;86.10;;;;;;6719214;88;20203;-75
2022/08/28 20:36:54;;;;;;;1999.90;999.90;;;20.70;86.50;;;;;;6717660;88;20232;-76
2022/08/28 20:46:55;;;;;;;1999.90;999.90;;;20.40;87.50;;;;;;6715239;88;20289;-75
2022/08/28 20:56:58;;;;;;;1999.90;999.90;;;20.20;88.00;;;;;;6712079;88;20839;-76
2022/08/28 21:06:58;;;;;;;1999.90;999.90;;;20.00;88.90;;;;;;6714646;88;20288;-75
2022/08/28 21:16:59;;;;;;;1999.90;999.90;;;19.80;89.90;;;;;;6714490;88;20401;-77
2022/08/28 21:27:01;;;;;;;1999.90;999.90;;;19.70;90.40;;;;;;6720855;88;20232;-75
2022/08/28 21:37:01;;;;;;;1999.90;999.90;;;19.60;90.40;;;;;;6731421;88;20229;-76
2022/08/28 21:47:02;;;;;;;1999.90;999.90;;;19.40;90.80;;;;;;6716910;88;20324;-75
2022/08/28 21:57:02;;;;;;;1999.90;999.90;;;19.20;91.00;;;;;;6724783;88;20245;-75
2022/08/28 22:07:03;;;;;;;1999.90;999.90;;;19.10;91.10;;;;;;6721019;88;20529;-75
2022/08/28 22:17:05;;;;;;;1999.90;999.90;;;19.00;91.50;;;;;;6716470;88;21013;-75
2022/08/28 22:27:26;;;;;;;1999.90;999.90;;;18.80;91.80;;;;;;6731202;77;20926;-79
2022/08/28 22:37:26;;;;;;;1999.90;999.90;;;18.70;92.20;;;;;;6689177;88;20214;-78
2022/08/28 22:47:27;;;;;;;1999.90;999.90;;;18.60;92.60;;;;;;6685570;88;20220;-78
2022/08/28 22:57:27;;;;;;;1999.90;999.90;;;18.40;93.00;;;;;;6685916;88;20650;-77
2022/08/28 23:07:28;;;;;;;1999.90;999.90;;;18.30;93.30;;;;;;6688004;88;20242;-78
2022/08/28 23:17:29;;;;;;;1999.90;999.90;;;18.20;93.90;;;;;;6685037;88;20655;-78
2022/08/28 23:27:29;;;;;;;1999.90;999.90;;;18.10;94.70;;;;;;6685010;88;20285;-79
2022/08/28 23:37:30;;;;;;;1999.90;999.90;;;17.90;95.60;;;;;;6701912;88;20185;-78
2022/08/28 23:47:30;;;;;;;1999.90;999.90;;;17.70;96.20;;;;;;6704587;88;20260;-77
2022/08/28 23:57:31;;;;;;;1999.90;999.90;;;17.60;97.50;;;;;;6710125;88;20196;-80
